EZY46T LXGB-LXGB

Flight info

Callsign EZY46T
Flight time 0h 30m
Altitude 10000
Route DCT PIMOS DCT UNBUT DCT
Aircraft A320/M-SDE3FGHIRWY/LB1

Departure

Time 2026-05-04 17:27
Airport Gibraltar Airport (LXGB)

Arrival

Time 2026-05-04 17:58
Airport Gibraltar Airport (LXGB)
Time Latitude Longitude Altitude Speed Heading
2026-05-04 17:16 36.15322 -5.34534 17 ft 0 kts 357°
2026-05-04 17:21 36.15318 -5.34533 17 ft 2 kts 357°
2026-05-04 17:22 36.15301 -5.34532 17 ft 2 kts 357°
2026-05-04 17:22 36.15286 -5.34532 17 ft 0 kts 358°
2026-05-04 17:23 36.15241 -5.34519 17 ft 2 kts 319°
2026-05-04 17:23 36.15231 -5.34501 17 ft 3 kts 268°
2026-05-04 17:23 36.15235 -5.34458 16 ft 3 kts 216°
2026-05-04 17:24 36.15250 -5.34449 16 ft 2 kts 208°
2026-05-04 17:24 36.15256 -5.34444 16 ft 0 kts 199°
2026-05-04 17:25 36.15252 -5.34446 16 ft 0 kts 197°
2026-05-04 17:25 36.15242 -5.34306 15 ft 19 kts 82°
2026-05-04 17:26 36.15193 -5.34234 16 ft 7 kts 175°
2026-05-04 17:26 36.15143 -5.34412 16 ft 43 kts 268°
2026-05-04 17:27 36.15084 -5.36442 591 ft 150 kts 271°
2026-05-04 17:27 36.16319 -5.38708 1863 ft 186 kts 335°
2026-05-04 17:28 36.19084 -5.38529 2730 ft 235 kts 36°
2026-05-04 17:29 36.20680 -5.32421 2986 ft 267 kts 90°
2026-05-04 17:29 36.20712 -5.25528 2989 ft 267 kts 90°
2026-05-04 17:30 36.21126 -5.18651 2986 ft 263 kts 85°
2026-05-04 17:31 36.21411 -5.14422 2839 ft 236 kts 91°
2026-05-04 17:31 36.18336 -5.10787 2188 ft 215 kts 182°
2026-05-04 17:32 36.15926 -5.12163 2029 ft 179 kts 230°
2026-05-04 17:33 36.15208 -5.16175 1989 ft 149 kts 272°
2026-05-04 17:33 36.15256 -5.17436 1986 ft 145 kts 272°
2026-05-04 17:34 36.15396 -5.21149 1988 ft 143 kts 272°
2026-05-04 17:34 36.15444 -5.22381 1988 ft 143 kts 272°
2026-05-04 17:35 36.15434 -5.26101 1499 ft 143 kts 266°
2026-05-04 17:35 36.15346 -5.28541 1043 ft 140 kts 266°
2026-05-04 17:35 36.15301 -5.29754 869 ft 145 kts 266°
2026-05-04 17:36 36.15244 -5.30999 608 ft 141 kts 266°
2026-05-04 17:36 36.15193 -5.32230 323 ft 142 kts 268°
2026-05-04 17:36 36.15155 -5.33431 192 ft 140 kts 269°
2026-05-04 17:36 36.15132 -5.34625 40 ft 135 kts 267°
2026-05-04 17:37 36.15106 -5.35814 599 ft 139 kts 268°
2026-05-04 17:37 36.15297 -5.36996 1369 ft 146 kts 309°
2026-05-04 17:37 36.16199 -5.37407 2172 ft 149 kts
2026-05-04 17:37 36.17066 -5.36557 2413 ft 188 kts 61°
2026-05-04 17:38 36.17357 -5.34973 2283 ft 188 kts 90°
2026-05-04 17:38 36.17268 -5.33350 1947 ft 190 kts 98°
2026-05-04 17:38 36.17116 -5.31724 1621 ft 190 kts 95°
2026-05-04 17:38 36.17012 -5.30107 1368 ft 186 kts 97°
2026-05-04 17:39 36.15331 -5.28488 1135 ft 166 kts 199°
2026-05-04 17:39 36.14559 -5.29472 1149 ft 165 kts 253°
2026-05-04 17:39 36.14726 -5.30883 544 ft 177 kts 299°
2026-05-04 17:40 36.15168 -5.32198 290 ft 159 kts 272°
2026-05-04 17:40 36.15161 -5.33483 149 ft 143 kts 270°
2026-05-04 17:40 36.15126 -5.34686 39 ft 135 kts 266°
2026-05-04 17:40 36.15095 -5.35754 27 ft 130 kts 267°
2026-05-04 17:41 36.15040 -5.36945 701 ft 139 kts 264°
2026-05-04 17:41 36.14531 -5.37974 1417 ft 157 kts 206°
2026-05-04 17:41 36.13392 -5.37575 1617 ft 205 kts 131°
2026-05-04 17:41 36.12943 -5.35761 1839 ft 253 kts 82°
2026-05-04 17:42 36.13596 -5.33487 1553 ft 310 kts 68°
2026-05-04 17:42 36.14407 -5.30997 1057 ft 308 kts 68°
2026-05-04 17:42 36.15224 -5.28667 593 ft 281 kts 60°
2026-05-04 17:42 36.16560 -5.27201 385 ft 241 kts 14°
2026-05-04 17:43 36.18037 -5.27302 635 ft 196 kts 332°
2026-05-04 17:43 36.18891 -5.28381 960 ft 178 kts 268°
2026-05-04 17:43 36.18175 -5.29656 1090 ft 190 kts 207°
2026-05-04 17:43 36.16964 -5.30118 713 ft 176 kts 210°
2026-05-04 17:44 36.16071 -5.31023 540 ft 153 kts 221°
2026-05-04 17:44 36.15445 -5.31967 408 ft 135 kts 243°
2026-05-04 17:44 36.15197 -5.33067 173 ft 130 kts 265°
2026-05-04 17:44 36.15153 -5.34176 24 ft 129 kts 268°
2026-05-04 17:45 36.15112 -5.35208 25 ft 126 kts 267°
2026-05-04 17:45 36.15079 -5.36513 286 ft 165 kts 269°
2026-05-04 17:45 36.15056 -5.38063 728 ft 193 kts 268°
2026-05-04 17:45 36.14989 -5.39817 1096 ft 211 kts 255°
2026-05-04 17:46 36.14159 -5.41276 1502 ft 215 kts 210°
2026-05-04 17:46 36.12718 -5.41718 1970 ft 218 kts 176°
2026-05-04 17:46 36.11246 -5.41260 2489 ft 220 kts 160°
2026-05-04 17:46 36.09870 -5.40423 2973 ft 224 kts 137°
2026-05-04 17:47 36.09206 -5.38726 3347 ft 227 kts 92°
2026-05-04 17:47 36.09659 -5.36871 3224 ft 229 kts 49°
2026-05-04 17:47 36.11010 -5.35996 3020 ft 221 kts 360°
2026-05-04 17:47 36.12394 -5.36666 3034 ft 220 kts 310°
2026-05-04 17:48 36.12903 -5.38391 3188 ft 220 kts 263°
2026-05-04 17:48 36.12209 -5.40024 3380 ft 221 kts 218°
2026-05-04 17:48 36.10820 -5.40833 3534 ft 223 kts 195°
2026-05-04 17:48 36.09275 -5.40928 3503 ft 225 kts 168°
2026-05-04 17:49 36.07760 -5.40455 3396 ft 225 kts 162°
2026-05-04 17:49 36.06276 -5.39853 3320 ft 224 kts 163°
2026-05-04 17:49 36.04789 -5.39279 3249 ft 224 kts 163°
2026-05-04 17:49 36.03312 -5.38759 3195 ft 222 kts 170°
2026-05-04 17:50 36.01856 -5.39039 3649 ft 218 kts 217°
2026-05-04 17:50 36.00970 -5.40565 3966 ft 233 kts 253°
2026-05-04 17:50 36.01070 -5.42544 3445 ft 240 kts 297°
2026-05-04 17:50 36.02309 -5.43834 3103 ft 238 kts 347°
2026-05-04 17:51 36.03958 -5.43730 2594 ft 244 kts
2026-05-04 17:51 36.05610 -5.43411 2376 ft 237 kts
2026-05-04 17:51 36.07223 -5.43421 2238 ft 226 kts 354°
2026-05-04 17:51 36.08754 -5.43614 2386 ft 222 kts 353°
2026-05-04 17:52 36.10292 -5.43857 2443 ft 223 kts 340°
2026-05-04 17:52 36.11428 -5.45047 2495 ft 219 kts 292°
2026-05-04 17:52 36.11467 -5.46865 2567 ft 217 kts 244°
2026-05-04 17:52 36.10397 -5.48104 2648 ft 218 kts 198°
2026-05-04 17:53 36.08919 -5.47984 2567 ft 219 kts 149°
2026-05-04 17:53 36.08038 -5.46521 2723 ft 221 kts 100°
2026-05-04 17:53 36.08303 -5.44665 2765 ft 229 kts 59°
2026-05-04 17:53 36.09538 -5.43394 2078 ft 243 kts 22°
2026-05-04 17:54 36.11153 -5.42777 1757 ft 239 kts 12°
2026-05-04 17:54 36.12700 -5.42346 1470 ft 213 kts 14°
2026-05-04 17:54 36.13896 -5.41608 1419 ft 177 kts 42°
2026-05-04 17:54 36.14532 -5.40404 1108 ft 163 kts 72°
2026-05-04 17:55 36.14697 -5.39034 685 ft 160 kts 79°
2026-05-04 17:55 36.15008 -5.37760 437 ft 151 kts 76°
2026-05-04 17:55 36.15069 -5.36495 160 ft 145 kts 91°
2026-05-04 17:55 36.15131 -5.35269 24 ft 135 kts 87°
2026-05-04 17:56 36.15129 -5.34070 217 ft 148 kts 91°
2026-05-04 17:56 36.15118 -5.32817 989 ft 149 kts 91°
2026-05-04 17:56 36.15083 -5.31396 1251 ft 180 kts 94°
2026-05-04 17:56 36.14988 -5.29757 1685 ft 206 kts 96°
2026-05-04 17:57 36.14839 -5.27820 2126 ft 250 kts 90°
2026-05-04 17:57 36.16022 -5.26202 1238 ft 316 kts 351°
2026-05-04 17:57 36.17461 -5.27888 -3 ft 239 kts 298°
2026-05-04 17:57 36.17851 -5.29177 9 ft 101 kts 289°
2026-05-04 17:58 36.18037 -5.29852 7 ft 65 kts 288°
2026-05-04 17:58 36.18148 -5.30261 7 ft 34 kts 289°
2026-05-04 17:58 36.18193 -5.30425 7 ft 13 kts 291°
2026-05-04 17:58 36.18224 -5.30525 7 ft 13 kts 291°
2026-05-04 17:59 36.18226 -5.30532 -3 ft 0 kts 234°